Time;durP1;ratioP1;P1;durP2;ratioP2;P2;SDS_P1;SDS_P2;PMS_P1;PMS_P2;Temp;Humidity;BMP_temperature;BMP_pressure;BME280_temperature;BME280_humidity;BME280_pressure;Samples;Min_cycle;Max_cycle;Signal;HPM_P1;HPM_P2
2022/06/26 00:01:24;;;;;;;6.73;6.13;;;20.00;99.90;;;;;;4974624;28;20250;-87
2022/06/26 00:03:50;;;;;;;7.70;5.90;;;19.90;99.90;;;;;;4954058;28;20219;-87
2022/06/26 00:06:15;;;;;;;5.70;5.20;;;19.90;99.90;;;;;;4955389;29;20201;-88
2022/06/26 00:08:41;;;;;;;6.40;5.80;;;19.90;99.90;;;;;;4955175;29;20235;-88
2022/06/26 00:11:07;;;;;;;6.77;6.17;;;19.80;99.90;;;;;;4954958;29;20270;-88
2022/06/26 00:13:32;;;;;;;6.67;6.07;;;19.80;99.90;;;;;;4955413;29;20179;-86
2022/06/26 00:15:58;;;;;;;6.73;5.90;;;19.70;99.90;;;;;;4955374;29;20177;-87
2022/06/26 00:18:24;;;;;;;7.63;6.70;;;;;;;;;;4955203;29;20181;-87
2022/06/26 00:20:50;;;;;;;7.87;7.17;;;;;;;;;;4955205;28;20208;-85
2022/06/26 00:23:15;;;;;;;6.97;6.30;;;19.80;99.90;;;;;;4955159;28;20424;-86
2022/06/26 00:25:41;;;;;;;6.00;5.17;;;19.90;99.90;;;;;;4954912;29;20435;-85
2022/06/26 00:28:06;;;;;;;7.07;6.20;;;20.00;99.90;;;;;;4953565;28;20184;-85
2022/06/26 00:30:32;;;;;;;8.43;6.20;;;19.90;99.90;;;;;;4953389;29;20549;-85
2022/06/26 00:32:57;;;;;;;8.37;7.67;;;20.10;99.90;;;;;;4955018;29;20190;-85
2022/06/26 00:35:23;;;;;;;9.07;8.17;;;20.10;99.90;;;;;;4954935;29;20185;-86
2022/06/26 00:37:49;;;;;;;7.37;6.67;;;20.10;99.90;;;;;;4953631;29;20184;-86
2022/06/26 00:40:14;;;;;;;8.40;7.60;;;20.20;99.90;;;;;;4954523;29;20185;-85
2022/06/26 00:42:40;;;;;;;6.93;6.23;;;20.20;99.90;;;;;;4953783;29;20303;-86
2022/06/26 00:45:09;;;;;;;6.50;5.90;;;20.30;99.90;;;;;;4953798;29;20267;-85
2022/06/26 00:47:35;;;;;;;8.30;7.53;;;20.20;99.90;;;;;;4953615;29;20239;-86
2022/06/26 00:50:01;;;;;;;6.47;5.97;;;20.20;99.90;;;;;;4954810;29;20412;-87
2022/06/26 00:52:28;;;;;;;8.97;6.87;;;20.20;99.90;;;;;;4954672;29;20415;-88
2022/06/26 00:54:54;;;;;;;7.77;7.13;;;20.20;99.90;;;;;;4954452;29;20635;-87
2022/06/26 00:57:20;;;;;;;7.70;7.10;;;20.20;99.90;;;;;;4954812;29;20417;-87
2022/06/26 00:59:47;;;;;;;8.77;7.87;;;20.20;99.90;;;;;;4953419;29;20430;-87
2022/06/26 01:02:13;;;;;;;6.83;6.17;;;20.20;99.90;;;;;;4954659;29;20968;-88
2022/06/26 01:04:39;;;;;;;8.23;7.43;;;20.20;99.90;;;;;;4954730;29;20450;-88
2022/06/26 01:07:05;;;;;;;7.07;6.53;;;20.20;99.90;;;;;;4954599;29;20177;-87
2022/06/26 01:09:34;;;;;;;7.97;7.20;;;20.20;99.90;;;;;;4954136;29;20609;-87
2022/06/26 01:12:00;;;;;;;8.17;7.43;;;20.20;99.90;;;;;;4954678;29;20451;-87
2022/06/26 01:14:25;;;;;;;7.20;6.57;;;20.20;99.90;;;;;;4953531;29;21181;-88
2022/06/26 01:16:51;;;;;;;9.10;6.70;;;20.20;99.90;;;;;;4954859;29;20212;-90
2022/06/26 01:19:19;;;;;;;7.67;6.97;;;20.20;99.90;;;;;;4954898;29;20630;-89
2022/06/26 01:21:44;;;;;;;7.43;6.83;;;20.20;99.90;;;;;;4954844;29;20209;-88
2022/06/26 01:24:10;;;;;;;8.70;7.87;;;20.20;99.90;;;;;;4953245;29;20512;-88
2022/06/26 01:26:36;;;;;;;7.13;6.43;;;20.10;99.90;;;;;;4953572;29;20205;-89
2022/06/26 01:29:04;;;;;;;7.87;7.07;;;20.30;99.90;;;;;;4954281;28;20184;-88
2022/06/26 01:31:33;;;;;;;8.20;7.40;;;20.20;99.90;;;;;;4953594;29;20444;-89
2022/06/26 01:34:02;;;;;;;8.10;7.40;;;20.20;99.90;;;;;;4954901;29;20428;-89
2022/06/26 01:36:27;;;;;;;8.27;7.60;;;20.20;99.90;;;;;;4953814;29;20432;-87
2022/06/26 01:38:53;;;;;;;8.83;8.10;;;20.20;99.90;;;;;;4954366;29;20419;-88
2022/06/26 01:41:18;;;;;;;7.10;6.40;;;20.20;99.90;;;;;;4956764;28;20222;-88
2022/06/26 01:43:44;;;;;;;7.50;6.80;;;20.20;99.90;;;;;;4958062;29;20240;-88
2022/06/26 01:46:09;;;;;;;8.23;7.53;;;20.20;99.90;;;;;;4958111;29;20173;-88
2022/06/26 01:48:37;;;;;;;8.43;7.73;;;20.20;99.90;;;;;;4957978;29;20180;-87
2022/06/26 01:51:03;;;;;;;8.50;7.70;;;20.10;99.90;;;;;;4956861;29;20308;-87
2022/06/26 01:53:29;;;;;;;8.33;7.37;;;20.10;99.90;;;;;;4958237;29;20892;-87
2022/06/26 01:55:55;;;;;;;8.50;7.70;;;20.20;99.90;;;;;;4957643;29;20419;-88
2022/06/26 01:58:21;;;;;;;8.03;7.43;;;20.20;99.90;;;;;;4957990;29;20559;-88
2022/06/26 02:00:47;;;;;;;7.67;7.00;;;20.20;99.90;;;;;;4956445;29;20208;-88
2022/06/26 02:03:15;;;;;;;8.53;7.83;;;20.20;99.90;;;;;;4957675;29;20252;-87
2022/06/26 02:05:41;;;;;;;8.40;7.70;;;20.20;99.90;;;;;;4957635;29;20912;-88
2022/06/26 02:08:07;;;;;;;8.83;8.03;;;20.20;99.90;;;;;;4957507;29;20534;-87
2022/06/26 02:13:36;;;;;;;9.00;8.20;;;20.20;99.90;;;;;;4957999;29;20421;-88
2022/06/26 02:16:22;;;;;;;8.60;7.90;;;20.20;99.90;;;;;;4957503;29;20500;-88
2022/06/26 02:18:50;;;;;;;9.00;8.10;;;20.20;99.90;;;;;;4957632;29;20520;-87
2022/06/26 02:21:18;;;;;;;9.40;8.70;;;20.20;99.90;;;;;;4957267;29;20949;-87
2022/06/26 02:24:03;;;;;;;10.27;9.23;;;20.10;99.90;;;;;;4957312;29;20415;-88
2022/06/26 02:26:29;;;;;;;8.87;8.07;;;20.10;99.90;;;;;;4957275;29;20447;-88
2022/06/26 02:28:55;;;;;;;8.57;7.87;;;20.20;99.90;;;;;;4957450;29;20830;-87
2022/06/26 02:31:20;;;;;;;8.97;8.20;;;20.20;99.90;;;;;;4957147;29;20223;-87
2022/06/26 02:33:46;;;;;;;9.93;8.93;;;20.10;99.90;;;;;;4955798;29;20196;-87
2022/06/26 02:36:12;;;;;;;9.90;9.10;;;20.00;99.90;;;;;;4957122;29;20549;-87
2022/06/26 02:38:37;;;;;;;9.47;8.47;;;20.00;99.90;;;;;;4957055;29;20184;-88
2022/06/26 02:41:23;;;;;;;9.80;8.10;;;20.00;99.90;;;;;;4956666;28;20226;-90
2022/06/26 02:43:48;;;;;;;9.23;8.43;;;20.10;99.90;;;;;;4957148;28;20600;-90
2022/06/26 02:46:14;;;;;;;10.90;10.10;;;19.90;99.90;;;;;;4957379;29;20436;-89
2022/06/26 02:48:39;;;;;;;11.23;10.13;;;19.90;99.90;;;;;;4957757;28;20272;-90
2022/06/26 02:51:05;;;;;;;10.67;9.67;;;19.80;99.90;;;;;;4956684;28;20209;-91
2022/06/26 02:53:30;;;;;;;11.23;10.13;;;20.00;99.90;;;;;;4956987;29;20183;-91
2022/06/26 02:55:56;;;;;;;10.40;9.47;;;19.70;99.90;;;;;;4957280;28;20728;-90
2022/06/26 02:58:21;;;;;;;11.07;9.97;;;19.60;99.90;;;;;;4956388;29;20740;-90
2022/06/26 03:00:47;;;;;;;11.07;10.10;;;19.60;99.90;;;;;;4957287;29;20204;-90
2022/06/26 03:03:13;;;;;;;9.90;8.90;;;19.50;99.90;;;;;;4957376;28;20188;-90
2022/06/26 03:05:38;;;;;;;12.13;10.80;;;19.50;99.90;;;;;;4956996;29;20512;-88
2022/06/26 03:08:07;;;;;;;10.00;9.10;;;19.50;99.90;;;;;;4955574;28;20547;-88
2022/06/26 03:10:32;;;;;;;11.93;9.93;;;19.50;99.90;;;;;;4955983;29;20427;-88
2022/06/26 03:12:58;;;;;;;11.90;10.70;;;19.30;99.90;;;;;;4956724;29;20551;-88
2022/06/26 03:15:23;;;;;;;11.37;10.37;;;19.40;99.90;;;;;;4955389;28;20179;-87
2022/06/26 03:17:49;;;;;;;10.73;9.70;;;19.30;99.90;;;;;;4956611;28;20192;-87
2022/06/26 03:20:19;;;;;;;12.70;11.10;;;19.40;99.90;;;;;;4955119;29;20212;-88
2022/06/26 03:22:45;;;;;;;10.90;9.90;;;19.30;99.90;;;;;;4955167;28;20266;-88
2022/06/26 03:25:11;;;;;;;13.00;11.77;;;19.30;99.90;;;;;;4954869;29;20510;-87
2022/06/26 03:27:37;;;;;;;10.73;9.63;;;19.30;99.90;;;;;;4955267;28;20188;-88
2022/06/26 03:30:04;;;;;;;12.80;11.63;;;19.20;99.90;;;;;;4955420;29;20785;-88
2022/06/26 03:32:29;;;;;;;12.00;10.90;;;19.30;99.90;;;;;;4956442;28;20176;-89
2022/06/26 03:34:55;;;;;;;11.37;10.33;;;19.30;99.90;;;;;;4956298;28;20422;-88
2022/06/26 03:37:20;;;;;;;11.07;10.17;;;19.20;99.90;;;;;;4955060;29;20239;-88
2022/06/26 03:39:46;;;;;;;11.53;10.43;;;19.20;99.90;;;;;;4956241;28;20192;-88
2022/06/26 03:42:11;;;;;;;12.10;10.93;;;19.30;99.90;;;;;;4955237;28;20274;-89
2022/06/26 03:44:37;;;;;;;14.73;11.13;;;19.30;99.90;;;;;;4955293;28;20180;-88
2022/06/26 03:47:03;;;;;;;12.10;11.07;;;19.30;99.90;;;;;;4955187;28;20187;-88
2022/06/26 03:49:29;;;;;;;12.83;11.73;;;18.90;99.90;;;;;;4956176;28;20210;-88
2022/06/26 03:51:54;;;;;;;14.07;12.77;;;19.20;99.90;;;;;;4955156;28;20716;-88
2022/06/26 03:54:20;;;;;;;12.10;11.00;;;19.20;99.90;;;;;;4955734;28;20240;-89
2022/06/26 03:56:46;;;;;;;11.70;10.63;;;19.20;99.90;;;;;;4956473;28;20245;-88
2022/06/26 03:59:12;;;;;;;12.77;11.67;;;19.20;99.90;;;;;;4956076;28;20642;-86
2022/06/26 04:01:38;;;;;;;12.33;10.97;;;19.20;99.90;;;;;;4955341;28;20511;-86
2022/06/26 04:04:04;;;;;;;12.17;10.97;;;19.10;99.90;;;;;;4955404;28;20784;-87
2022/06/26 04:06:29;;;;;;;13.67;12.43;;;19.20;99.90;;;;;;4954256;28;20636;-87
2022/06/26 04:08:55;;;;;;;11.37;10.37;;;19.10;99.90;;;;;;4954540;28;20224;-86
2022/06/26 04:11:20;;;;;;;12.73;11.40;;;19.20;99.90;;;;;;4955850;28;20183;-88
2022/06/26 04:13:49;;;;;;;14.17;12.17;;;19.20;99.90;;;;;;4954909;29;20186;-88
2022/06/26 04:16:15;;;;;;;12.63;11.43;;;18.90;99.90;;;;;;4954463;29;20200;-87
2022/06/26 04:18:40;;;;;;;11.97;10.83;;;19.10;99.90;;;;;;4955303;28;20492;-88
2022/06/26 04:21:06;;;;;;;12.27;11.27;;;19.20;99.90;;;;;;4955403;28;20901;-87
2022/06/26 04:23:31;;;;;;;12.20;11.10;;;19.30;99.90;;;;;;4954153;28;20192;-86
2022/06/26 04:25:57;;;;;;;12.30;11.10;;;19.30;99.90;;;;;;4953623;28;20214;-88
2022/06/26 04:28:22;;;;;;;12.90;10.80;;;19.40;99.90;;;;;;4955519;28;20180;-87
2022/06/26 04:30:51;;;;;;;12.80;11.60;;;19.40;99.90;;;;;;4955215;28;20215;-87
2022/06/26 04:33:17;;;;;;;12.50;11.20;;;19.50;99.90;;;;;;4954992;28;20204;-88
2022/06/26 04:35:43;;;;;;;12.57;11.43;;;19.60;99.90;;;;;;4954637;28;20425;-87
2022/06/26 04:38:08;;;;;;;12.40;11.30;;;19.70;99.90;;;;;;4953819;28;20544;-87
2022/06/26 04:40:34;;;;;;;12.10;11.00;;;19.80;99.90;;;;;;4954766;28;20228;-86
2022/06/26 04:42:59;;;;;;;12.53;11.47;;;19.80;99.90;;;;;;4953837;28;20669;-86
2022/06/26 04:45:28;;;;;;;11.80;10.60;;;19.90;99.90;;;;;;4953791;28;20203;-86
2022/06/26 04:47:53;;;;;;;11.60;10.40;;;19.90;99.90;;;;;;4953714;28;20231;-87
2022/06/26 04:50:22;;;;;;;11.03;9.93;;;19.90;99.90;;;;;;4953732;28;20423;-87
2022/06/26 04:52:49;;;;;;;11.53;10.47;;;20.00;99.90;;;;;;4954826;29;20256;-87
2022/06/26 04:55:15;;;;;;;11.40;10.40;;;20.10;99.90;;;;;;4954602;28;20423;-87
2022/06/26 04:57:41;;;;;;;10.50;9.50;;;20.10;99.90;;;;;;4953674;28;20435;-86
2022/06/26 05:00:08;;;;;;;10.73;9.93;;;20.20;99.90;;;;;;4954701;29;20504;-88
2022/06/26 05:02:35;;;;;;;10.07;9.27;;;;;;;;;;4954675;29;20293;-86
2022/06/26 05:05:01;;;;;;;10.97;9.93;;;;;;;;;;4954916;28;20408;-86
2022/06/26 05:07:27;;;;;;;11.50;10.30;;;;;;;;;;4955094;28;20420;-86
2022/06/26 05:09:53;;;;;;;10.47;9.67;;;;;;;;;;4954588;28;20223;-87
2022/06/26 05:12:19;;;;;;;15.30;10.23;;;;;;;;;;4953946;29;20433;-88
2022/06/26 05:14:45;;;;;;;10.30;9.30;;;;;;;;;;4954053;28;20515;-88
2022/06/26 05:17:11;;;;;;;12.07;11.07;;;;;;;;;;4958413;28;20433;-87
2022/06/26 05:19:37;;;;;;;11.90;10.00;;;;;;;;;;4958259;28;20432;-87
2022/06/26 05:22:03;;;;;;;11.37;10.33;;;;;;;;;;4958963;28;20219;-89
2022/06/26 05:24:29;;;;;;;12.53;9.80;;;;;;;;;;4957367;28;20417;-88
2022/06/26 05:26:56;;;;;;;10.00;9.10;;;;;;;;;;4957760;28;20995;-88
2022/06/26 05:29:22;;;;;;;10.47;9.50;;;;;;;;;;4957331;29;20455;-86
2022/06/26 05:31:51;;;;;;;10.53;9.53;;;;;;;;;;4958288;28;20423;-86
2022/06/26 05:34:17;;;;;;;10.33;9.33;;;;;;;;;;4958523;28;20408;-85
2022/06/26 05:36:43;;;;;;;9.37;8.57;;;;;;;;;;4957236;28;20786;-87
2022/06/26 05:39:09;;;;;;;9.37;8.57;;;;;;;;;;4958077;28;20180;-86
2022/06/26 05:41:35;;;;;;;9.43;8.63;;;;;;;;;;4958370;28;20304;-84
2022/06/26 05:44:01;;;;;;;9.07;8.33;;;;;;;;;;4958356;28;20501;-86
2022/06/26 05:46:27;;;;;;;10.30;9.30;;;;;;;;;;4957086;29;20434;-86
2022/06/26 05:48:53;;;;;;;10.70;9.70;;;;;;;;;;4958349;28;20835;-85
2022/06/26 05:51:19;;;;;;;9.60;8.63;;;;;;;;;;4958138;28;20448;-86
2022/06/26 05:53:45;;;;;;;10.17;8.53;;;;;;;;;;4956619;28;20457;-87
2022/06/26 05:56:11;;;;;;;8.60;7.80;;;;;;;;;;4956796;28;20526;-87
2022/06/26 05:58:37;;;;;;;8.87;8.03;;;;;;;;;;4958091;28;20653;-88
2022/06/26 06:01:03;;;;;;;8.20;7.40;;;;;;;;;;4957887;28;20200;-87
2022/06/26 06:03:28;;;;;;;7.23;6.73;;;23.30;1.00;;;;;;4956830;28;20207;-87
2022/06/26 06:05:54;;;;;;;10.23;7.67;;;24.40;1.00;;;;;;4957883;29;20237;-87
2022/06/26 06:08:19;;;;;;;7.80;7.10;;;24.90;99.90;;;;;;4956297;29;20203;-86
2022/06/26 06:10:45;;;;;;;7.73;7.03;;;;;;;;;;4938675;29;20240;-87
2022/06/26 06:13:11;;;;;;;7.90;7.10;;;25.10;99.90;;;;;;4937339;29;20217;-86
2022/06/26 06:15:36;;;;;;;6.97;6.37;;;25.80;99.90;;;;;;4938846;29;20472;-88
2022/06/26 06:18:02;;;;;;;7.37;6.77;;;26.10;1.00;;;;;;4937633;29;20182;-89
2022/06/26 06:20:28;;;;;;;8.03;6.57;;;;;;;;;;4937725;29;20220;-88
2022/06/26 06:23:05;;;;;;;7.07;6.57;;;25.30;38.70;;;;;;4938674;29;20276;-89
2022/06/26 06:25:33;;;;;;;7.23;6.53;;;25.10;99.90;;;;;;4938340;29;20503;-88
2022/06/26 06:27:59;;;;;;;7.40;6.17;;;24.70;1.00;;;;;;4937586;29;20516;-89
2022/06/26 06:30:25;;;;;;;7.67;6.90;;;24.30;99.90;;;;;;4938942;29;20422;-90
2022/06/26 06:32:51;;;;;;;6.37;5.83;;;;;;;;;;4938845;29;20245;-88
2022/06/26 06:35:16;;;;;;;7.50;6.90;;;24.50;1.00;;;;;;4938511;29;20821;-90
2022/06/26 06:37:43;;;;;;;7.60;6.90;;;;;;;;;;4936892;29;20429;-87
2022/06/26 06:40:10;;;;;;;8.43;7.40;;;;;;;;;;4937792;29;20646;-82
2022/06/26 06:42:36;;;;;;;7.63;7.03;;;;;;;;;;4937972;29;20851;-86
2022/06/26 06:45:01;;;;;;;7.33;6.67;;;23.40;1.00;;;;;;4938025;29;20416;-85
2022/06/26 06:47:27;;;;;;;7.60;6.90;;;23.40;1.00;;;;;;4937953;29;20524;-85
2022/06/26 06:49:52;;;;;;;7.30;6.80;;;23.60;1.00;;;;;;4936931;29;20268;-88
2022/06/26 06:52:18;;;;;;;7.20;6.50;;;23.80;1.00;;;;;;4937799;29;20185;-86
2022/06/26 06:54:44;;;;;;;7.83;7.13;;;;;;;;;;4936339;29;20191;-88
2022/06/26 06:57:10;;;;;;;7.33;6.63;;;;;;;;;;4936818;29;20191;-88
2022/06/26 06:59:39;;;;;;;7.17;6.47;;;;;;;;;;4938125;29;20183;-85
2022/06/26 07:02:05;;;;;;;9.30;7.83;;;;;;;;;;4937505;29;20243;-86
2022/06/26 07:04:33;;;;;;;8.77;8.17;;;26.30;29.90;;;;;;4937694;29;20897;-90
2022/06/26 07:06:59;;;;;;;7.40;6.90;;;;;;;;;;4937682;29;20472;-85
2022/06/26 07:09:24;;;;;;;6.40;5.90;;;27.20;99.90;;;;;;4944368;29;20515;-84
2022/06/26 07:11:50;;;;;;;6.70;6.20;;;27.60;99.90;;;;;;4957350;29;20436;-89
2022/06/26 07:14:16;;;;;;;6.07;5.53;;;;;;;;;;4957272;29;20548;-90
2022/06/26 07:16:42;;;;;;;6.30;5.80;;;;;;;;;;4957290;28;20224;-91
2022/06/26 07:19:08;;;;;;;6.17;5.67;;;;;;;;;;4957340;28;20240;-90
2022/06/26 07:21:36;;;;;;;5.63;5.03;;;;;;;;;;4955872;28;20480;-89
2022/06/26 07:24:02;;;;;;;5.73;5.33;;;31.00;1.00;;;;;;4956842;28;20409;-89
2022/06/26 07:26:29;;;;;;;5.77;5.37;;;;;;;;;;4955895;29;20443;-89
2022/06/26 07:28:55;;;;;;;6.03;5.20;;;;;;;;;;4955728;28;20192;-89
2022/06/26 07:31:20;;;;;;;8.97;6.07;;;;;;;;;;4955790;28;20408;-89
2022/06/26 07:36:32;;;;;;;4.47;4.17;;;;;;;;;;4956850;29;20829;-90
2022/06/26 07:38:58;;;;;;;5.93;5.00;;;;;;;;;;4956376;28;20424;-89
2022/06/26 07:41:23;;;;;;;4.83;4.53;;;;;;;;;;4955301;29;20470;-90
2022/06/26 07:43:49;;;;;;;6.07;5.57;;;;;;;;;;4964307;28;20238;-90
2022/06/26 07:46:15;;;;;;;5.10;4.60;;;;;;;;;;4974884;28;20923;-91
2022/06/26 07:48:41;;;;;;;4.97;4.47;;;;;;;;;;4974055;28;20180;-90
2022/06/26 07:51:07;;;;;;;5.07;4.60;;;;;;;;;;4975174;28;20176;-89
2022/06/26 07:53:33;;;;;;;5.10;4.70;;;;;;;;;;4975517;28;20172;-90
2022/06/26 07:55:59;;;;;;;5.20;4.80;;;;;;;;;;4976091;28;20204;-89
2022/06/26 07:58:25;;;;;;;4.60;4.20;;;;;;;;;;4975860;28;20196;-90
2022/06/26 08:00:51;;;;;;;4.70;4.40;;;;;;;;;;4974704;28;20412;-90
2022/06/26 08:03:17;;;;;;;4.60;4.20;;;36.30;1.00;;;;;;4975777;28;20211;-89
2022/06/26 08:05:43;;;;;;;4.30;4.00;;;36.50;1.00;;;;;;4976104;28;20999;-90
2022/06/26 08:08:09;;;;;;;3.97;3.67;;;37.00;1.00;;;;;;4975346;28;20173;-90
2022/06/26 08:10:36;;;;;;;8.40;4.10;;;;;;;;;;4974041;28;20614;-90
2022/06/26 08:13:03;;;;;;;4.40;4.00;;;36.60;1.00;;;;;;4975687;28;20491;-90
2022/06/26 08:15:33;;;;;;;4.20;3.90;;;36.90;1.00;;;;;;4974105;28;20443;-89
2022/06/26 08:18:00;;;;;;;4.37;4.00;;;37.40;1.00;;;;;;4975388;28;20419;-89
2022/06/26 08:20:26;;;;;;;4.40;4.10;;;38.00;1.00;;;;;;4975511;28;20451;-90
2022/06/26 08:22:52;;;;;;;4.67;4.37;;;37.00;1.00;;;;;;4975040;28;20471;-89
2022/06/26 08:25:18;;;;;;;4.80;4.30;;;37.20;1.00;;;;;;4974964;28;20541;-91
2022/06/26 08:27:43;;;;;;;4.40;4.10;;;37.90;1.00;;;;;;4974121;28;20263;-90
2022/06/26 08:30:09;;;;;;;5.03;4.53;;;38.40;1.00;;;;;;4973776;28;20514;-90
2022/06/26 08:32:36;;;;;;;6.23;3.27;;;39.00;1.00;;;;;;4974884;28;20168;-91
2022/06/26 08:35:02;;;;;;;4.60;4.20;;;39.70;1.00;;;;;;4974661;28;20415;-90
2022/06/26 08:37:28;;;;;;;3.30;3.10;;;;;;;;;;4975011;28;20419;-89
2022/06/26 08:39:54;;;;;;;3.80;3.60;;;39.50;1.00;;;;;;4975433;28;20404;-88
2022/06/26 08:42:21;;;;;;;4.10;3.67;;;38.90;1.00;;;;;;4975283;28;20677;-90
2022/06/26 08:44:46;;;;;;;3.97;3.67;;;38.90;1.00;;;;;;4973200;28;20176;-89
2022/06/26 08:47:17;;;;;;;4.33;3.93;;;39.00;1.00;;;;;;4974558;28;20439;-90
2022/06/26 08:49:44;;;;;;;3.30;2.50;;;38.90;1.00;;;;;;4972952;28;20633;-87
2022/06/26 08:52:13;;;;;;;2.43;1.70;;;38.40;1.00;;;;;;4973513;28;20454;-89
2022/06/26 08:54:39;;;;;;;2.60;1.87;;;37.90;1.00;;;;;;4973040;28;20976;-90
2022/06/26 08:57:05;;;;;;;3.17;1.50;;;38.50;1.00;;;;;;4973543;28;20424;-90
2022/06/26 08:59:31;;;;;;;1.83;1.40;;;;;;;;;;4974498;28;20926;-90
2022/06/26 09:01:57;;;;;;;1.57;1.30;;;39.50;1.00;;;;;;4974607;28;20227;-91
2022/06/26 09:04:22;;;;;;;2.33;1.83;;;39.80;1.00;;;;;;4974583;28;20774;-90
2022/06/26 09:06:48;;;;;;;1.13;0.97;;;39.60;1.00;;;;;;4974706;28;20192;-90
2022/06/26 09:09:25;;;;;;;2.80;1.30;;;38.50;1.00;;;;;;4973004;28;20228;-90
2022/06/26 09:11:56;;;;;;;2.47;1.50;;;37.70;1.00;;;;;;4974065;28;20265;-90
2022/06/26 09:14:23;;;;;;;2.17;1.30;;;37.20;1.00;;;;;;4973821;28;20419;-90
2022/06/26 09:16:52;;;;;;;2.67;1.53;;;37.60;1.00;;;;;;4973158;28;20416;-90
2022/06/26 09:19:20;;;;;;;2.93;1.53;;;38.00;1.00;;;;;;4974963;28;20426;-90
2022/06/26 09:21:49;;;;;;;1.20;1.00;;;36.90;1.00;;;;;;4974565;28;20868;-90
2022/06/26 09:24:17;;;;;;;2.93;1.40;;;37.10;1.00;;;;;;4973165;28;20447;-90
2022/06/26 09:26:44;;;;;;;1.30;1.20;;;36.60;1.00;;;;;;4973685;28;20428;-90
2022/06/26 09:29:13;;;;;;;2.63;1.67;;;36.50;1.00;;;;;;4973650;28;21026;-91
2022/06/26 09:31:39;;;;;;;4.37;1.63;;;36.30;1.00;;;;;;4973567;28;20431;-91
2022/06/26 09:34:07;;;;;;;1.20;1.10;;;36.40;1.00;;;;;;4974667;28;20408;-91
2022/06/26 09:36:33;;;;;;;6.60;2.30;;;36.20;1.00;;;;;;4974766;28;20976;-91
2022/06/26 09:38:59;;;;;;;2.10;1.70;;;35.90;1.00;;;;;;4974352;28;20435;-88
2022/06/26 09:41:43;;;;;;;2.33;1.53;;;36.30;1.00;;;;;;4974368;28;21010;-91
2022/06/26 09:44:20;;;;;;;2.40;1.40;;;36.50;1.00;;;;;;4974489;28;20451;-91
2022/06/26 09:46:46;;;;;;;1.47;1.30;;;36.70;1.00;;;;;;4974496;28;20462;-90
2022/06/26 09:49:12;;;;;;;2.00;1.70;;;;;;;;;;4974498;28;20423;-91
2022/06/26 09:51:41;;;;;;;2.10;1.90;;;37.70;1.00;;;;;;4975489;28;20184;-90
2022/06/26 09:54:08;;;;;;;2.30;1.93;;;37.70;1.00;;;;;;4974406;28;21084;-91
2022/06/26 09:56:34;;;;;;;2.50;1.80;;;37.70;1.00;;;;;;4974706;28;20499;-91
2022/06/26 09:59:00;;;;;;;2.20;1.60;;;38.70;1.00;;;;;;4971435;28;20515;-90
2022/06/26 10:07:06;;;;;;;1.90;1.70;;;39.30;1.00;;;;;;4977676;28;20423;-91
2022/06/26 10:09:34;;;;;;;2.10;1.93;;;39.50;1.00;;;;;;4976960;28;20491;-89
2022/06/26 10:12:01;;;;;;;2.10;1.90;;;;;;;;;;4976765;28;20435;-90
2022/06/26 10:14:30;;;;;;;2.03;1.93;;;38.60;1.00;;;;;;4976087;28;20420;-91
2022/06/26 10:17:29;;;;;;;2.73;1.60;;;39.10;1.00;;;;;;4975577;28;20472;-91
2022/06/26 10:20:06;;;;;;;2.50;2.40;;;40.00;1.00;;;;;;4975625;28;20946;-90
2022/06/26 10:22:58;;;;;;;2.50;2.13;;;40.70;1.00;;;;;;4975819;28;20483;-90
2022/06/26 10:25:26;;;;;;;5.33;2.50;;;;;;;;;;4977052;28;20434;-91
2022/06/26 10:27:53;;;;;;;1.80;1.70;;;41.40;1.00;;;;;;4962864;28;20416;-91
2022/06/26 10:30:21;;;;;;;2.20;2.03;;;41.40;1.00;;;;;;4956087;28;20956;-91
2022/06/26 10:33:05;;;;;;;2.20;2.10;;;;;;;;;;4957891;29;20413;-91
2022/06/26 10:35:39;;;;;;;2.20;1.93;;;40.30;1.00;;;;;;4957849;28;20424;-91
2022/06/26 10:38:26;;;;;;;2.67;1.63;;;39.70;1.00;;;;;;4957403;29;20420;-89
2022/06/26 10:44:15;;;;;;;3.20;1.80;;;39.80;1.00;;;;;;4957494;29;20516;-90
2022/06/26 10:46:50;;;;;;;2.20;2.00;;;39.00;1.00;;;;;;4957858;29;20413;-91
2022/06/26 10:49:16;;;;;;;1.70;1.40;;;37.30;1.00;;;;;;4958100;29;20413;-91
2022/06/26 10:51:43;;;;;;;2.20;2.00;;;36.30;1.00;;;;;;4956139;29;20421;-90
2022/06/26 10:54:21;;;;;;;2.77;1.50;;;35.90;1.00;;;;;;4956815;29;20409;-90
2022/06/26 10:56:54;;;;;;;8.40;2.80;;;35.30;1.00;;;;;;4955957;29;20428;-91
2022/06/26 10:59:22;;;;;;;2.40;1.90;;;35.30;1.00;;;;;;4957737;29;21009;-91
2022/06/26 11:01:49;;;;;;;1.60;1.30;;;;;;;;;;4956270;29;20996;-91
2022/06/26 11:04:14;;;;;;;1.83;1.47;;;34.70;1.00;;;;;;4957576;28;20468;-91
2022/06/26 11:06:40;;;;;;;1.40;1.20;;;34.70;1.00;;;;;;4957517;29;20777;-91
2022/06/26 11:09:08;;;;;;;3.20;1.83;;;35.80;1.00;;;;;;4957016;29;20217;-90
2022/06/26 11:11:33;;;;;;;1.40;1.20;;;37.60;1.00;;;;;;4956152;29;20632;-89
2022/06/26 11:14:08;;;;;;;1.47;1.30;;;39.70;1.00;;;;;;4956797;28;20420;-91
2022/06/26 11:16:41;;;;;;;1.60;1.50;;;39.20;1.00;;;;;;4956163;29;20176;-91
2022/06/26 11:19:20;;;;;;;1.53;1.00;;;38.60;1.00;;;;;;4955986;29;20428;-90
2022/06/26 11:21:46;;;;;;;1.53;1.20;;;38.20;1.00;;;;;;4957026;29;20562;-92
2022/06/26 11:24:11;;;;;;;1.60;1.50;;;38.50;1.00;;;;;;4956722;29;20500;-92
2022/06/26 11:26:37;;;;;;;2.77;2.10;;;38.60;1.00;;;;;;4957142;29;20184;-92
2022/06/26 11:29:04;;;;;;;3.10;2.00;;;38.70;1.00;;;;;;4955715;29;20173;-91
2022/06/26 11:31:32;;;;;;;2.60;2.37;;;38.10;1.00;;;;;;4956655;29;20169;-91
2022/06/26 11:34:09;;;;;;;3.10;2.40;;;39.20;1.00;;;;;;4955502;29;20448;-90
2022/06/26 11:36:34;;;;;;;4.30;2.73;;;38.90;1.00;;;;;;4955482;29;20420;-90
2022/06/26 11:39:00;;;;;;;2.60;2.40;;;;;;;;;;4955166;29;20952;-90
2022/06/26 11:41:26;;;;;;;3.03;2.53;;;36.30;1.00;;;;;;4956364;28;20204;-90
2022/06/26 11:43:57;;;;;;;2.70;2.50;;;35.30;1.00;;;;;;4955383;29;20428;-91
2022/06/26 11:46:24;;;;;;;3.07;2.70;;;34.40;1.00;;;;;;4956246;29;20578;-90
2022/06/26 11:48:50;;;;;;;2.90;2.70;;;35.10;1.00;;;;;;4954857;29;20465;-90
2022/06/26 11:51:18;;;;;;;3.13;2.90;;;35.50;1.00;;;;;;4957161;28;20425;-91
2022/06/26 11:53:46;;;;;;;2.80;2.60;;;34.50;1.00;;;;;;4955577;29;20910;-90
2022/06/26 11:56:21;;;;;;;2.53;2.20;;;34.10;1.00;;;;;;4954381;28;20440;-90
2022/06/26 11:58:52;;;;;;;2.63;2.43;;;33.30;1.00;;;;;;4954556;29;20964;-89
2022/06/26 12:01:18;;;;;;;3.47;3.07;;;32.70;1.00;;;;;;4953205;29;20468;-90
2022/06/26 12:03:47;;;;;;;3.23;2.40;;;33.50;1.00;;;;;;4953650;29;20777;-88
2022/06/26 12:06:24;;;;;;;2.77;2.47;;;35.60;1.00;;;;;;4953372;29;20424;-90
2022/06/26 12:08:49;;;;;;;3.90;3.47;;;36.30;1.00;;;;;;4955505;29;20452;-90
2022/06/26 12:11:15;;;;;;;4.53;3.60;;;37.30;1.00;;;;;;4954587;29;20453;-91
2022/06/26 12:13:40;;;;;;;4.30;4.00;;;37.80;1.00;;;;;;4955632;29;20224;-91
2022/06/26 12:16:08;;;;;;;4.20;3.90;;;38.80;1.00;;;;;;4955796;29;20187;-90
2022/06/26 12:18:41;;;;;;;3.90;3.37;;;39.50;1.00;;;;;;4953590;29;20670;-91
2022/06/26 12:21:18;;;;;;;4.03;3.70;;;39.20;1.00;;;;;;4955743;29;20460;-90
2022/06/26 12:23:53;;;;;;;4.00;3.70;;;37.40;1.00;;;;;;4954029;28;20440;-90
2022/06/26 12:26:22;;;;;;;4.20;3.90;;;36.40;1.00;;;;;;4954853;29;20404;-91
2022/06/26 12:28:54;;;;;;;3.20;2.90;;;36.70;1.00;;;;;;4954429;29;20437;-91
2022/06/26 12:31:20;;;;;;;2.77;2.57;;;38.20;1.00;;;;;;4955669;29;20471;-91
2022/06/26 12:33:47;;;;;;;3.20;3.00;;;39.80;1.00;;;;;;4954315;29;20425;-91
2022/06/26 12:36:14;;;;;;;4.93;3.77;;;40.40;1.00;;;;;;4955586;29;20176;-91
2022/06/26 12:38:40;;;;;;;3.27;3.07;;;39.80;1.00;;;;;;4955173;29;20409;-90
2022/06/26 12:41:16;;;;;;;2.77;2.57;;;39.60;1.00;;;;;;4955174;28;20476;-90
2022/06/26 12:43:46;;;;;;;3.10;2.87;;;39.40;1.00;;;;;;4955914;29;20431;-90
2022/06/26 12:46:12;;;;;;;2.70;2.50;;;39.70;1.00;;;;;;4955415;29;20452;-92
2022/06/26 12:48:38;;;;;;;3.53;3.20;;;39.20;1.00;;;;;;4954024;29;20435;-90
2022/06/26 12:51:06;;;;;;;3.07;2.87;;;39.60;1.00;;;;;;4954068;29;20433;-90
2022/06/26 12:53:31;;;;;;;3.30;2.47;;;39.40;1.00;;;;;;4953815;29;20173;-90
2022/06/26 12:55:57;;;;;;;3.70;3.40;;;38.80;1.00;;;;;;4955446;29;20425;-91
2022/06/26 12:58:23;;;;;;;3.50;2.73;;;39.10;1.00;;;;;;4955535;29;20657;-91
2022/06/26 13:00:49;;;;;;;3.43;3.20;;;39.30;1.00;;;;;;4955418;29;20412;-92
2022/06/26 13:03:15;;;;;;;5.27;2.90;;;40.40;1.00;;;;;;4955261;28;20185;-91
2022/06/26 13:05:43;;;;;;;3.80;2.83;;;40.60;1.00;;;;;;4955427;29;20169;-91
2022/06/26 13:08:12;;;;;;;2.80;2.60;;;40.40;1.00;;;;;;4954887;28;20598;-91
2022/06/26 13:10:38;;;;;;;3.80;2.90;;;41.20;1.00;;;;;;4954844;29;20459;-91
2022/06/26 13:13:06;;;;;;;3.17;2.87;;;;;;;;;;4953877;29;20457;-89
2022/06/26 13:15:32;;;;;;;3.90;3.50;;;39.80;1.00;;;;;;4955105;28;20417;-91
2022/06/26 13:17:57;;;;;;;3.37;3.07;;;40.30;1.00;;;;;;4955031;29;20415;-90
2022/06/26 13:20:23;;;;;;;4.00;3.40;;;39.80;1.00;;;;;;4954892;28;20181;-92
2022/06/26 13:22:49;;;;;;;3.90;3.60;;;39.30;1.00;;;;;;4953747;28;20177;-91